createdAt,value
2017-09-23T00:00:14.134Z,7.20
2017-09-23T00:01:11.416Z,9.20
2017-09-23T00:02:08.653Z,8.10
2017-09-23T00:03:05.981Z,9.00
2017-09-23T00:04:03.719Z,8.60
2017-09-23T00:05:00.989Z,8.70
2017-09-23T00:05:58.258Z,8.50
2017-09-23T00:06:55.521Z,9.80
2017-09-23T00:07:52.753Z,8.20
2017-09-23T00:08:50.005Z,8.90
2017-09-23T00:09:47.221Z,9.00
2017-09-23T00:10:44.470Z,9.40
2017-09-23T00:11:41.731Z,8.80
2017-09-23T00:12:38.983Z,9.20
2017-09-23T00:13:36.235Z,8.80
2017-09-23T00:14:33.492Z,8.20
2017-09-23T00:15:30.718Z,9.00
2017-09-23T00:16:28.018Z,8.60
2017-09-23T00:17:25.253Z,8.50
2017-09-23T00:18:22.534Z,9.60
2017-09-23T00:19:19.770Z,10.10
2017-09-23T00:20:17.098Z,9.50
2017-09-23T00:21:14.373Z,9.60
2017-09-23T00:22:11.629Z,9.60
2017-09-23T00:23:08.861Z,9.60
2017-09-23T00:24:06.118Z,9.40
2017-09-23T00:25:03.342Z,8.80
2017-09-23T00:26:00.629Z,9.50
2017-09-23T00:26:57.899Z,8.80
2017-09-23T00:27:55.189Z,9.10
2017-09-23T00:28:52.421Z,9.30
2017-09-23T00:29:49.694Z,9.30
2017-09-23T00:30:46.942Z,9.20
2017-09-23T00:31:44.217Z,8.90
2017-09-23T00:32:41.469Z,9.40
2017-09-23T00:33:38.747Z,9.00
2017-09-23T00:34:36.005Z,10.00
2017-09-23T00:35:33.283Z,8.90
2017-09-23T00:36:30.573Z,9.10
2017-09-23T00:37:27.834Z,8.70
2017-09-23T00:38:25.064Z,9.30
2017-09-23T00:39:22.333Z,8.60
2017-09-23T00:40:19.589Z,8.40
2017-09-23T00:41:16.837Z,9.90
2017-09-23T00:42:14.086Z,8.90
2017-09-23T00:43:13.525Z,9.60
2017-09-23T00:44:10.777Z,9.10
2017-09-23T00:45:08.805Z,8.80
2017-09-23T00:46:06.046Z,9.90
2017-09-23T00:47:03.618Z,10.00
2017-09-23T00:48:00.858Z,10.40
2017-09-23T00:48:58.122Z,9.20
2017-09-23T00:49:55.352Z,8.90
2017-09-23T00:50:52.641Z,9.90
2017-09-23T00:51:49.928Z,8.90
2017-09-23T00:52:47.273Z,8.10
2017-09-23T00:53:44.522Z,8.60
2017-09-23T00:54:41.784Z,9.60
2017-09-23T00:55:39.029Z,9.90
2017-09-23T00:56:36.294Z,9.00
2017-09-23T00:57:33.553Z,9.60
2017-09-23T00:58:30.825Z,8.70
2017-09-23T00:59:28.067Z,8.20
2017-09-23T01:00:25.337Z,8.50
2017-09-23T01:01:22.937Z,8.90
2017-09-23T01:02:20.209Z,8.80
2017-09-23T01:03:17.445Z,8.60
2017-09-23T01:04:14.718Z,10.40
2017-09-23T01:05:11.964Z,9.70
2017-09-23T01:06:09.237Z,8.80
2017-09-23T01:07:10.471Z,9.80
2017-09-23T01:08:07.775Z,9.00
2017-09-23T01:09:09.780Z,9.10
2017-09-23T01:10:07.049Z,9.00
2017-09-23T01:11:04.288Z,9.40
2017-09-23T01:12:01.559Z,8.80
2017-09-23T01:12:58.853Z,9.50
2017-09-23T01:13:56.117Z,9.40
2017-09-23T01:14:53.360Z,8.70
2017-09-23T01:15:50.627Z,9.80
2017-09-23T01:16:47.877Z,8.90
2017-09-23T01:17:45.158Z,9.40
2017-09-23T01:18:42.418Z,9.10
2017-09-23T01:19:39.684Z,9.30
2017-09-23T01:20:36.918Z,9.00
2017-09-23T01:21:34.181Z,8.00
2017-09-23T01:22:31.421Z,8.90
2017-09-23T01:23:28.701Z,9.80
2017-09-23T01:24:25.929Z,8.60
2017-09-23T01:25:23.193Z,8.30
2017-09-23T01:26:20.493Z,9.00
2017-09-23T01:27:17.766Z,8.20
2017-09-23T01:28:15.021Z,8.60
2017-09-23T01:29:12.349Z,9.00
2017-09-23T01:30:09.611Z,8.80
2017-09-23T01:31:06.879Z,8.30
2017-09-23T01:32:04.114Z,9.00
2017-09-23T01:33:01.469Z,9.30
2017-09-23T01:33:58.734Z,9.40
2017-09-23T01:34:56.005Z,9.40
2017-09-23T01:35:53.249Z,8.90
2017-09-23T01:36:50.526Z,9.10
2017-09-23T01:37:47.766Z,9.50
2017-09-23T01:38:45.058Z,8.90
2017-09-23T01:39:42.303Z,9.50
2017-09-23T01:40:39.577Z,9.10
2017-09-23T01:41:36.832Z,9.30
2017-09-23T01:42:34.102Z,8.80
2017-09-23T01:43:31.420Z,9.20
2017-09-23T01:44:28.688Z,8.80
2017-09-23T01:45:26.065Z,8.10
2017-09-23T01:46:23.342Z,8.50
2017-09-23T01:47:20.574Z,8.20
2017-09-23T01:48:17.873Z,9.40
2017-09-23T01:49:15.124Z,7.90
2017-09-23T01:50:12.393Z,10.00
2017-09-23T01:51:09.672Z,8.80
2017-09-23T01:52:06.942Z,8.40
2017-09-23T01:53:04.189Z,8.30
2017-09-23T01:54:01.486Z,8.60
2017-09-23T01:54:58.717Z,9.50
2017-09-23T01:55:55.982Z,8.70
2017-09-23T01:56:53.415Z,8.50
2017-09-23T01:57:51.282Z,8.90
2017-09-23T01:58:48.525Z,8.40
2017-09-23T01:59:45.805Z,8.80
2017-09-23T02:00:43.064Z,8.50
2017-09-23T02:01:40.328Z,9.60
2017-09-23T02:02:37.584Z,9.90
2017-09-23T02:03:34.869Z,9.10
2017-09-23T02:04:32.102Z,8.50
2017-09-23T02:05:29.363Z,9.60
2017-09-23T02:06:26.602Z,8.70
2017-09-23T02:07:23.865Z,8.80
2017-09-23T02:08:21.111Z,8.50
2017-09-23T02:09:18.393Z,9.00
2017-09-23T02:10:15.669Z,8.40
2017-09-23T02:11:12.934Z,8.80
2017-09-23T02:12:10.205Z,9.00
2017-09-23T02:13:07.474Z,7.60
2017-09-23T02:14:04.910Z,9.10
2017-09-23T02:15:02.198Z,9.40
2017-09-23T02:15:59.426Z,8.80
2017-09-23T02:16:56.690Z,8.50
2017-09-23T02:17:53.938Z,9.10
2017-09-23T02:18:56.389Z,8.70
2017-09-23T02:19:53.670Z,8.60
2017-09-23T02:20:50.909Z,10.10
2017-09-23T02:21:48.174Z,9.10
2017-09-23T02:22:45.430Z,8.70
2017-09-23T02:23:42.761Z,8.60
2017-09-23T02:24:40.020Z,8.90
2017-09-23T02:25:37.289Z,9.10
2017-09-23T02:26:34.549Z,8.60
2017-09-23T02:27:31.818Z,7.30
2017-09-23T02:28:29.053Z,8.90
2017-09-23T02:29:26.333Z,9.90
2017-09-23T02:30:23.581Z,9.70
2017-09-23T02:31:20.870Z,10.00
2017-09-23T02:32:18.124Z,9.60
2017-09-23T02:33:15.397Z,8.90
2017-09-23T02:34:12.666Z,9.50
2017-09-23T02:35:09.965Z,9.80
2017-09-23T02:36:07.217Z,9.10
2017-09-23T02:37:04.474Z,9.80
2017-09-23T02:38:01.737Z,8.30
2017-09-23T02:38:59.012Z,8.70
2017-09-23T02:39:56.299Z,9.20
2017-09-23T02:40:53.572Z,9.00
2017-09-23T02:41:50.822Z,9.50
2017-09-23T02:42:48.092Z,10.00
2017-09-23T02:43:45.331Z,9.30
2017-09-23T02:44:42.738Z,8.70
2017-09-23T02:45:39.978Z,10.20
2017-09-23T02:46:37.276Z,11.00
2017-09-23T02:47:34.544Z,10.10
2017-09-23T02:48:31.815Z,9.20
2017-09-23T02:49:29.063Z,9.90
2017-09-23T02:50:26.390Z,11.60
2017-09-23T02:51:23.638Z,9.90
2017-09-23T02:52:20.930Z,9.50
2017-09-23T02:53:18.203Z,9.60
2017-09-23T02:54:15.471Z,9.40
2017-09-23T02:55:12.753Z,10.00
2017-09-23T02:56:10.030Z,9.40
2017-09-23T02:57:07.267Z,10.30
2017-09-23T02:58:04.527Z,10.10
2017-09-23T02:59:01.804Z,9.70
2017-09-23T02:59:59.126Z,9.40
2017-09-23T03:00:56.389Z,9.30
2017-09-23T03:01:53.670Z,9.50
2017-09-23T03:02:50.923Z,8.80
2017-09-23T03:03:48.185Z,9.60
2017-09-23T03:04:45.465Z,9.00
2017-09-23T03:05:42.769Z,8.80
2017-09-23T03:06:40.013Z,9.40
2017-09-23T03:07:37.279Z,10.50
2017-09-23T03:08:34.538Z,9.40
2017-09-23T03:09:31.815Z,10.10
2017-09-23T03:10:29.081Z,10.90
2017-09-23T03:11:26.355Z,11.30
2017-09-23T03:12:23.618Z,10.30
2017-09-23T03:13:20.881Z,11.00
2017-09-23T03:14:18.148Z,10.30
2017-09-23T03:15:15.464Z,11.20
2017-09-23T03:16:12.711Z,10.40
2017-09-23T03:17:10.008Z,10.30
2017-09-23T03:18:07.262Z,10.60
2017-09-23T03:19:04.899Z,9.90
2017-09-23T03:20:02.141Z,9.40
2017-09-23T03:20:59.438Z,10.00
2017-09-23T03:21:56.687Z,9.70
2017-09-23T03:22:53.972Z,10.10
2017-09-23T03:23:51.226Z,9.50
2017-09-23T03:24:48.505Z,11.10
2017-09-23T03:25:45.774Z,10.40
2017-09-23T03:26:43.047Z,10.50
2017-09-23T03:27:40.303Z,9.80
2017-09-23T03:28:37.585Z,10.10
2017-09-23T03:29:34.865Z,10.30
2017-09-23T03:30:32.143Z,9.20
2017-09-23T03:31:29.426Z,11.00
2017-09-23T03:32:26.713Z,10.30
2017-09-23T03:33:23.990Z,10.60
2017-09-23T03:34:21.270Z,11.10
2017-09-23T03:35:18.525Z,9.90
2017-09-23T03:36:15.831Z,10.50
2017-09-23T03:37:13.085Z,10.30
2017-09-23T03:38:10.354Z,10.00
2017-09-23T03:39:07.611Z,11.40
2017-09-23T03:40:04.893Z,10.10
2017-09-23T03:41:02.175Z,11.50
2017-09-23T03:41:59.452Z,10.40
2017-09-23T03:42:56.760Z,10.20
2017-09-23T03:43:54.024Z,9.70
2017-09-23T03:44:51.268Z,10.40
2017-09-23T03:45:48.557Z,11.20
2017-09-23T03:46:45.793Z,9.90
2017-09-23T03:47:43.057Z,10.40
2017-09-23T03:48:40.289Z,10.90
2017-09-23T03:49:37.548Z,10.30
2017-09-23T03:50:36.858Z,10.60
2017-09-23T03:51:34.125Z,10.80
2017-09-23T03:52:31.386Z,10.90
2017-09-23T03:53:28.642Z,10.10
2017-09-23T03:54:25.951Z,9.70
2017-09-23T03:55:23.202Z,9.60
2017-09-23T03:56:20.485Z,11.00
2017-09-23T03:57:17.739Z,11.50
2017-09-23T03:58:15.007Z,9.80
2017-09-23T03:59:12.249Z,9.70
2017-09-23T04:00:09.513Z,11.00
2017-09-23T04:01:06.765Z,10.50
2017-09-23T04:02:04.041Z,11.10
2017-09-23T04:03:01.281Z,10.90
2017-09-23T04:03:58.542Z,11.30
2017-09-23T04:04:55.774Z,10.50
2017-09-23T04:05:53.045Z,11.20
2017-09-23T04:06:50.318Z,9.90
2017-09-23T04:07:47.603Z,10.70
2017-09-23T04:08:44.834Z,11.60
2017-09-23T04:09:42.111Z,10.30
2017-09-23T04:10:39.361Z,11.50
2017-09-23T04:11:36.637Z,10.70
2017-09-23T04:12:33.896Z,11.10
2017-09-23T04:13:31.153Z,10.80
2017-09-23T04:14:28.401Z,10.10
2017-09-23T04:15:25.703Z,10.70
2017-09-23T04:16:22.948Z,11.30
2017-09-23T04:17:20.226Z,12.10
2017-09-23T04:18:17.609Z,11.20
2017-09-23T04:19:14.892Z,12.20
2017-09-23T04:20:12.112Z,10.40
2017-09-23T04:21:09.375Z,10.40
2017-09-23T04:22:06.640Z,10.50
2017-09-23T04:23:03.881Z,10.20
2017-09-23T04:24:01.133Z,10.50
2017-09-23T04:24:58.394Z,12.20
2017-09-23T04:25:55.698Z,11.10
2017-09-23T04:26:52.955Z,11.40
2017-09-23T04:27:50.210Z,11.90
2017-09-23T04:28:47.483Z,11.80
2017-09-23T04:29:44.730Z,11.50
2017-09-23T04:30:41.998Z,11.40
2017-09-23T04:31:39.238Z,11.30
2017-09-23T04:32:36.526Z,11.50
2017-09-23T04:33:33.786Z,10.80
2017-09-23T04:34:31.083Z,11.70
2017-09-23T04:35:28.341Z,11.70
2017-09-23T04:36:25.617Z,10.50
2017-09-23T04:37:22.913Z,12.00
2017-09-23T04:38:20.178Z,12.00
2017-09-23T04:39:17.429Z,11.70
2017-09-23T04:40:14.707Z,11.20
2017-09-23T04:41:11.947Z,11.70
2017-09-23T04:42:09.214Z,11.90
2017-09-23T04:43:06.490Z,11.60
2017-09-23T04:44:03.751Z,11.80
2017-09-23T04:45:01.002Z,11.60
2017-09-23T04:45:58.302Z,12.90
2017-09-23T04:46:55.565Z,11.70
2017-09-23T04:47:52.879Z,12.60
2017-09-23T04:48:50.125Z,11.40
2017-09-23T04:49:47.409Z,11.10
2017-09-23T04:50:44.664Z,11.30
2017-09-23T04:51:41.948Z,11.70
2017-09-23T04:52:39.238Z,11.60
2017-09-23T04:53:36.486Z,13.00
2017-09-23T04:54:33.738Z,12.30
2017-09-23T04:55:31.038Z,11.30
2017-09-23T04:56:28.294Z,11.90
2017-09-23T04:57:25.564Z,11.80
2017-09-23T04:58:22.813Z,13.00
2017-09-23T04:59:20.074Z,11.60
2017-09-23T05:00:17.325Z,11.80
2017-09-23T05:01:14.599Z,11.70
2017-09-23T05:02:11.867Z,11.50
2017-09-23T05:03:09.178Z,12.10
2017-09-23T05:04:06.470Z,11.50
2017-09-23T05:05:03.737Z,11.40
2017-09-23T05:06:01.017Z,11.60
2017-09-23T05:06:58.291Z,12.30
2017-09-23T05:07:55.534Z,11.00
2017-09-23T05:08:52.817Z,10.80
2017-09-23T05:09:50.075Z,11.90
2017-09-23T05:10:47.349Z,11.40
2017-09-23T05:11:44.602Z,11.60
2017-09-23T05:12:41.877Z,11.90
2017-09-23T05:13:39.166Z,12.30
2017-09-23T05:14:36.430Z,12.10
2017-09-23T05:15:33.668Z,11.70
2017-09-23T05:16:31.076Z,11.60
2017-09-23T05:17:28.317Z,12.80
2017-09-23T05:18:25.659Z,11.70
2017-09-23T05:19:22.909Z,11.60
2017-09-23T05:20:20.170Z,12.60
2017-09-23T05:21:17.428Z,12.50
2017-09-23T05:22:14.679Z,12.10
2017-09-23T05:23:11.919Z,13.30
2017-09-23T05:24:09.221Z,12.20
2017-09-23T05:25:06.474Z,12.70
2017-09-23T05:26:03.747Z,10.50
2017-09-23T05:27:01.005Z,12.30
2017-09-23T05:27:58.382Z,13.20
2017-09-23T05:28:55.667Z,11.80
2017-09-23T05:29:52.950Z,11.00
2017-09-23T05:30:50.201Z,11.70
2017-09-23T05:31:47.489Z,13.80
2017-09-23T05:32:44.739Z,12.70
2017-09-23T05:33:42.025Z,14.20
2017-09-23T05:34:39.290Z,14.90
2017-09-23T05:35:36.575Z,13.30
2017-09-23T05:36:33.810Z,13.50
2017-09-23T05:37:31.078Z,15.00
2017-09-23T05:38:28.645Z,13.90
2017-09-23T05:39:25.927Z,17.00
2017-09-23T05:40:23.176Z,15.30
2017-09-23T05:41:20.465Z,14.90
2017-09-23T05:42:17.726Z,14.50
2017-09-23T05:43:14.986Z,14.20
2017-09-23T05:44:12.255Z,14.90
2017-09-23T05:45:09.503Z,14.20
2017-09-23T05:46:06.743Z,14.00
2017-09-23T05:47:04.007Z,12.50
2017-09-23T05:48:01.247Z,14.50
2017-09-23T05:48:58.510Z,14.10
2017-09-23T05:49:55.789Z,15.80
2017-09-23T05:50:53.050Z,14.80
2017-09-23T05:51:50.342Z,14.70
2017-09-23T05:52:47.605Z,24.60
2017-09-23T05:53:44.830Z,22.80
2017-09-23T05:54:42.110Z,23.40
2017-09-23T05:55:39.673Z,24.70
2017-09-23T05:56:36.938Z,25.20
2017-09-23T05:57:34.165Z,15.60
2017-09-23T05:58:31.417Z,14.90
2017-09-23T05:59:28.694Z,16.00
2017-09-23T06:00:25.950Z,16.20
2017-09-23T06:01:23.202Z,16.10
2017-09-23T06:02:20.458Z,15.20
2017-09-23T06:03:17.693Z,14.80
2017-09-23T06:04:14.991Z,23.10
2017-09-23T06:05:12.253Z,27.80
2017-09-23T06:06:09.519Z,27.00
2017-09-23T06:07:06.742Z,28.50
2017-09-23T06:08:04.005Z,26.40
2017-09-23T06:09:01.338Z,28.10
2017-09-23T06:09:58.719Z,25.30
2017-09-23T06:10:55.968Z,27.50
2017-09-23T06:11:53.233Z,28.60
2017-09-23T06:12:50.499Z,25.70
2017-09-23T06:13:47.774Z,27.10
2017-09-23T06:14:45.058Z,16.20
2017-09-23T06:15:42.325Z,15.40
2017-09-23T06:16:39.593Z,15.50
2017-09-23T06:17:36.942Z,16.20
2017-09-23T06:18:34.186Z,16.00
2017-09-23T06:19:31.484Z,17.00
2017-09-23T06:20:28.777Z,14.30
2017-09-23T06:21:26.103Z,15.50
2017-09-23T06:22:23.346Z,14.70
2017-09-23T06:23:20.730Z,14.00
2017-09-23T06:24:17.991Z,12.60
2017-09-23T06:25:15.287Z,14.70
2017-09-23T06:26:12.673Z,14.30
2017-09-23T06:27:11.992Z,14.20
2017-09-23T06:28:09.339Z,13.90
2017-09-23T06:29:06.908Z,14.40
2017-09-23T06:30:04.322Z,14.10
2017-09-23T06:31:03.732Z,14.60
2017-09-23T06:32:01.318Z,14.90
2017-09-23T06:32:58.615Z,13.50
2017-09-23T06:33:56.121Z,14.80
2017-09-23T06:34:55.529Z,14.80
2017-09-23T06:35:52.934Z,15.40
2017-09-23T06:36:52.294Z,14.10
2017-09-23T06:37:49.569Z,15.20
2017-09-23T06:38:46.997Z,14.20
2017-09-23T06:39:44.321Z,14.10
2017-09-23T06:40:41.611Z,14.90
2017-09-23T06:41:38.960Z,13.60
2017-09-23T06:42:36.288Z,13.80
2017-09-23T06:43:33.553Z,13.90
2017-09-23T06:44:30.853Z,13.00
2017-09-23T06:45:28.098Z,12.30
2017-09-23T06:46:25.438Z,13.50
2017-09-23T06:47:22.712Z,13.70
2017-09-23T06:48:20.010Z,12.40
2017-09-23T06:49:17.277Z,13.90
2017-09-23T06:50:14.566Z,13.90
2017-09-23T06:51:11.914Z,13.70
2017-09-23T06:52:09.513Z,28.30
2017-09-23T06:53:06.766Z,25.90
2017-09-23T06:54:04.039Z,31.50
2017-09-23T06:55:01.307Z,29.60
2017-09-23T06:55:58.605Z,27.70
2017-09-23T06:57:36.318Z,28.50
2017-09-23T06:58:33.565Z,27.60
2017-09-23T06:59:30.917Z,26.60
2017-09-23T07:00:28.149Z,28.20
2017-09-23T07:01:25.430Z,26.00
2017-09-23T07:02:22.669Z,14.10
2017-09-23T07:03:19.929Z,15.20
2017-09-23T07:04:17.197Z,14.10
2017-09-23T07:05:14.506Z,15.90
2017-09-23T07:06:11.806Z,16.30
2017-09-23T07:07:09.083Z,15.60
2017-09-23T07:08:06.357Z,15.60
2017-09-23T07:09:03.618Z,14.00
2017-09-23T07:10:00.883Z,15.40
2017-09-23T07:10:58.154Z,16.40
2017-09-23T07:11:55.437Z,14.60
2017-09-23T07:12:52.715Z,14.20
2017-09-23T07:13:49.974Z,14.20
2017-09-23T07:14:47.239Z,14.70
2017-09-23T07:15:44.481Z,15.10
2017-09-23T07:16:41.793Z,15.00
2017-09-23T07:17:39.026Z,14.20
2017-09-23T07:18:36.343Z,15.10
2017-09-23T07:19:33.582Z,15.80
2017-09-23T07:20:30.856Z,13.40
2017-09-23T07:21:28.144Z,15.00
2017-09-23T07:22:25.414Z,14.20
2017-09-23T07:23:22.651Z,15.00
2017-09-23T07:24:19.932Z,14.60
2017-09-23T07:25:17.202Z,14.70
2017-09-23T07:26:14.566Z,16.00
2017-09-23T07:27:11.846Z,14.90
2017-09-23T07:28:09.140Z,15.50
2017-09-23T07:29:06.403Z,15.40
2017-09-23T07:30:03.683Z,14.70
2017-09-23T07:31:01.313Z,15.00
2017-09-23T07:31:58.602Z,14.70
2017-09-23T07:32:55.841Z,15.60
2017-09-23T07:33:53.120Z,15.00
2017-09-23T07:34:50.487Z,15.40
2017-09-23T07:35:47.753Z,16.20
2017-09-23T07:36:45.010Z,16.00
2017-09-23T07:37:42.279Z,15.40
2017-09-23T07:38:39.522Z,17.30
2017-09-23T07:39:36.909Z,16.80
2017-09-23T07:40:36.226Z,17.40
2017-09-23T07:41:33.503Z,17.10
2017-09-23T07:42:30.742Z,16.40
2017-09-23T07:43:27.994Z,15.70
2017-09-23T07:44:25.235Z,16.70
2017-09-23T07:45:22.508Z,16.30
2017-09-23T07:46:19.746Z,17.60
2017-09-23T07:47:17.039Z,16.80
2017-09-23T07:48:14.262Z,17.00
2017-09-23T07:49:11.562Z,18.30
2017-09-23T07:50:08.839Z,17.80
2017-09-23T07:51:06.131Z,18.10
2017-09-23T07:52:03.396Z,20.10
2017-09-23T07:53:00.683Z,18.90
2017-09-23T07:53:57.906Z,20.20
2017-09-23T07:54:55.230Z,20.20
2017-09-23T07:55:52.467Z,19.90
2017-09-23T07:56:49.733Z,20.70
2017-09-23T07:57:47.033Z,19.30
2017-09-23T07:58:46.433Z,18.50
2017-09-23T07:59:43.673Z,19.80
2017-09-23T08:00:40.955Z,20.00
2017-09-23T08:01:38.186Z,20.00
2017-09-23T08:02:35.483Z,20.00
2017-09-23T08:03:32.732Z,20.60
2017-09-23T08:04:29.986Z,20.30
2017-09-23T08:05:27.237Z,21.90
2017-09-23T08:06:24.538Z,20.90
2017-09-23T08:07:21.820Z,22.10
2017-09-23T08:08:19.174Z,21.80
2017-09-23T08:09:16.409Z,21.00
2017-09-23T08:10:13.669Z,23.00
2017-09-23T08:11:10.912Z,25.50
2017-09-23T08:12:08.178Z,21.70
2017-09-23T08:13:05.444Z,25.00
2017-09-23T08:14:02.811Z,23.70
2017-09-23T08:15:00.690Z,24.30
2017-09-23T08:16:00.025Z,23.50
2017-09-23T08:16:57.245Z,25.50
2017-09-23T08:17:54.558Z,24.30
2017-09-23T08:18:51.797Z,23.10
2017-09-23T08:19:49.125Z,24.30
2017-09-23T08:20:46.370Z,22.80
2017-09-23T08:21:43.657Z,24.00
2017-09-23T08:22:40.889Z,26.40
2017-09-23T08:23:38.174Z,24.20
2017-09-23T08:24:35.415Z,25.30
2017-09-23T08:25:32.703Z,24.60
2017-09-23T08:26:29.949Z,25.20
2017-09-23T08:27:27.214Z,24.90
2017-09-23T08:28:24.485Z,23.40
2017-09-23T08:29:21.781Z,24.30
2017-09-23T08:30:19.319Z,24.70
2017-09-23T08:31:16.586Z,23.20
2017-09-23T08:32:13.800Z,25.30
2017-09-23T08:33:11.109Z,25.30
2017-09-23T08:34:08.358Z,27.10
2017-09-23T08:35:05.619Z,26.10
2017-09-23T08:36:02.846Z,26.60
2017-09-23T08:37:00.125Z,24.80
2017-09-23T08:37:57.366Z,25.80
2017-09-23T08:38:54.669Z,26.00
2017-09-23T08:39:51.909Z,27.50
2017-09-23T08:40:49.240Z,25.80
2017-09-23T08:41:46.497Z,24.80
2017-09-23T08:42:45.922Z,25.10
2017-09-23T08:43:43.846Z,25.30
2017-09-23T08:44:41.194Z,25.60
2017-09-23T08:45:38.426Z,25.80
2017-09-23T08:46:35.699Z,26.80
2017-09-23T08:47:32.935Z,28.50
2017-09-23T08:48:30.254Z,28.00
2017-09-23T08:49:27.502Z,28.20
2017-09-23T08:50:24.782Z,29.30
2017-09-23T08:51:22.042Z,29.50
2017-09-23T08:52:19.289Z,29.70
2017-09-23T08:53:16.526Z,28.70
2017-09-23T08:54:13.806Z,27.60
2017-09-23T08:55:11.051Z,27.70
2017-09-23T08:56:08.335Z,27.20
2017-09-23T08:57:05.585Z,28.80
2017-09-23T08:58:02.850Z,30.50
2017-09-23T08:59:00.119Z,26.20
2017-09-23T08:59:57.426Z,27.60
2017-09-23T09:00:54.666Z,27.00
2017-09-23T09:01:52.213Z,29.10
2017-09-23T09:02:49.491Z,30.70
2017-09-23T09:03:46.777Z,25.30
2017-09-23T09:04:44.054Z,28.60
2017-09-23T09:05:41.337Z,28.00
2017-09-23T09:06:38.635Z,28.80
2017-09-23T09:07:35.930Z,29.50
2017-09-23T09:08:33.174Z,28.90
2017-09-23T09:09:30.470Z,28.00
2017-09-23T09:10:27.734Z,28.80
2017-09-23T09:11:24.998Z,30.40
2017-09-23T09:12:22.246Z,29.90
2017-09-23T09:13:19.540Z,27.60
2017-09-23T09:14:16.828Z,27.70
2017-09-23T09:15:16.196Z,29.30
2017-09-23T09:16:13.494Z,28.00
2017-09-23T09:17:10.780Z,28.50
2017-09-23T09:18:10.099Z,28.70
2017-09-23T09:19:07.385Z,28.80
2017-09-23T09:20:04.657Z,29.50
2017-09-23T09:21:01.967Z,29.30
2017-09-23T09:21:59.235Z,29.80
2017-09-23T09:22:56.498Z,28.40
2017-09-23T09:23:53.749Z,29.90
2017-09-23T09:24:51.095Z,28.00
2017-09-23T09:25:48.358Z,31.00
2017-09-23T09:26:45.627Z,31.60
2017-09-23T09:27:42.970Z,33.20
2017-09-23T09:28:40.329Z,32.10
2017-09-23T09:29:37.602Z,31.90
2017-09-23T09:30:34.995Z,32.80
2017-09-23T09:31:32.222Z,34.80
2017-09-23T09:32:29.487Z,31.50
2017-09-23T09:33:26.727Z,32.60
2017-09-23T09:34:23.996Z,31.50
2017-09-23T09:35:21.274Z,31.20
2017-09-23T09:36:18.537Z,28.90
2017-09-23T09:37:15.777Z,33.90
2017-09-23T09:38:13.042Z,33.00
2017-09-23T09:39:10.345Z,33.00
2017-09-23T09:40:07.628Z,31.90
2017-09-23T09:41:04.858Z,35.50
2017-09-23T09:42:02.500Z,33.80
2017-09-23T09:42:59.898Z,33.80
2017-09-23T09:43:57.189Z,31.80
2017-09-23T09:44:54.464Z,34.30
2017-09-23T09:45:51.888Z,31.00
2017-09-23T09:46:49.162Z,33.40
2017-09-23T09:47:46.437Z,35.00
2017-09-23T09:48:43.705Z,34.30
2017-09-23T09:49:41.117Z,30.40
2017-09-23T09:50:38.381Z,33.90
2017-09-23T09:51:35.710Z,33.40
2017-09-23T09:52:33.003Z,30.50
2017-09-23T09:53:30.401Z,34.70
2017-09-23T09:54:27.771Z,32.50
2017-09-23T09:55:25.156Z,31.80
2017-09-23T09:56:22.541Z,34.20
2017-09-23T09:57:19.801Z,32.60
2017-09-23T09:58:17.038Z,31.70
2017-09-23T09:59:14.337Z,33.90
2017-09-23T10:00:11.604Z,34.60
2017-09-23T10:01:08.913Z,33.70
2017-09-23T10:02:06.159Z,33.60
2017-09-23T10:03:03.447Z,33.50
2017-09-23T10:04:00.689Z,31.90
2017-09-23T10:04:57.978Z,33.00
2017-09-23T10:05:55.714Z,30.50
2017-09-23T10:06:58.425Z,34.80
2017-09-23T10:08:00.869Z,34.70
2017-09-23T10:09:03.273Z,32.80
2017-09-23T10:10:05.661Z,33.10
2017-09-23T10:11:08.126Z,33.80
2017-09-23T10:12:12.502Z,33.10
2017-09-23T10:13:16.774Z,32.20
2017-09-23T10:14:15.823Z,32.80
2017-09-23T10:15:13.134Z,32.30
2017-09-23T10:16:10.466Z,32.80
2017-09-23T10:17:07.733Z,33.00
2017-09-23T10:18:10.179Z,31.20
2017-09-23T10:19:12.639Z,33.60
2017-09-23T10:20:15.051Z,31.40
2017-09-23T10:21:17.387Z,31.20
2017-09-23T10:22:21.754Z,31.90
2017-09-23T10:23:24.143Z,30.00
2017-09-23T10:24:26.573Z,33.00
2017-09-23T10:25:24.023Z,29.30
2017-09-23T10:26:21.310Z,33.60
2017-09-23T10:27:18.710Z,32.80
2017-09-23T10:28:18.021Z,31.80
2017-09-23T10:29:15.295Z,33.60
2017-09-23T10:30:12.585Z,32.20
2017-09-23T10:31:09.886Z,29.80
2017-09-23T10:32:07.138Z,31.40
2017-09-23T10:33:04.412Z,30.60
2017-09-23T10:34:01.711Z,32.70
2017-09-23T10:34:58.998Z,31.00
2017-09-23T10:35:56.238Z,32.30
2017-09-23T10:36:53.510Z,33.00
2017-09-23T10:37:50.771Z,31.40
2017-09-23T10:38:48.039Z,31.90
2017-09-23T10:39:45.333Z,28.00
2017-09-23T10:40:42.602Z,30.50
2017-09-23T10:41:39.894Z,31.40
2017-09-23T10:42:37.157Z,30.40
2017-09-23T10:43:34.422Z,32.20
2017-09-23T10:44:31.679Z,32.00
2017-09-23T10:45:28.908Z,29.00
2017-09-23T10:46:26.226Z,30.10
2017-09-23T10:47:23.520Z,31.60
2017-09-23T10:48:20.818Z,30.50
2017-09-23T10:49:18.082Z,32.70
2017-09-23T10:50:15.345Z,30.70
2017-09-23T10:51:12.604Z,29.60
2017-09-23T10:52:09.889Z,28.50
2017-09-23T10:53:07.122Z,31.00
2017-09-23T10:54:04.445Z,28.90
2017-09-23T10:55:01.688Z,28.30
2017-09-23T10:55:59.054Z,28.40
2017-09-23T10:56:56.342Z,27.80
2017-09-23T10:57:53.622Z,29.70
2017-09-23T10:58:50.902Z,29.50
2017-09-23T10:59:48.174Z,28.60
2017-09-23T11:00:45.446Z,27.00
2017-09-23T11:01:42.709Z,30.10
2017-09-23T11:02:40.017Z,29.70
2017-09-23T11:03:37.296Z,29.50
2017-09-23T11:04:34.541Z,29.70
2017-09-23T11:05:31.914Z,28.00
2017-09-23T11:06:29.157Z,30.10
2017-09-23T11:07:26.447Z,30.10
2017-09-23T11:08:23.715Z,28.20
2017-09-23T11:09:21.004Z,26.00
2017-09-23T11:10:18.272Z,25.70
2017-09-23T11:11:15.537Z,26.70
2017-09-23T11:12:12.789Z,26.60
2017-09-23T11:13:10.056Z,26.10
2017-09-23T11:14:07.370Z,26.10
2017-09-23T11:15:04.642Z,26.30
2017-09-23T11:16:01.934Z,25.50
2017-09-23T11:16:59.198Z,23.60
2017-09-23T11:17:56.646Z,24.30
2017-09-23T11:18:54.027Z,22.60
2017-09-23T11:19:51.431Z,24.70
2017-09-23T11:20:48.778Z,24.50
2017-09-23T11:21:46.074Z,22.80
2017-09-23T11:22:43.408Z,25.70
2017-09-23T11:23:40.677Z,24.10
2017-09-23T11:24:37.938Z,23.40
2017-09-23T11:25:35.177Z,26.60
2017-09-23T11:26:32.441Z,25.40
2017-09-23T11:27:30.452Z,24.10
2017-09-23T11:28:27.735Z,24.50
2017-09-23T11:29:24.986Z,27.10
2017-09-23T11:30:22.256Z,24.80
2017-09-23T11:31:19.502Z,24.60
2017-09-23T11:32:16.778Z,24.60
2017-09-23T11:33:14.034Z,25.50
2017-09-23T11:34:11.309Z,22.30
2017-09-23T11:35:08.586Z,22.60
2017-09-23T11:36:05.869Z,24.40
2017-09-23T11:37:03.126Z,23.90
2017-09-23T11:38:00.424Z,23.60
2017-09-23T11:38:57.667Z,25.70
2017-09-23T11:39:54.946Z,25.80
2017-09-23T11:40:52.260Z,26.10
2017-09-23T11:41:49.638Z,22.60
2017-09-23T11:42:46.918Z,22.80
2017-09-23T11:43:44.188Z,22.40
2017-09-23T11:44:41.438Z,23.10
2017-09-23T11:45:38.710Z,21.90
2017-09-23T11:46:35.952Z,22.50
2017-09-23T11:47:33.218Z,23.30
2017-09-23T11:48:30.498Z,23.00
2017-09-23T11:49:27.777Z,23.10
2017-09-23T11:50:25.088Z,23.10
2017-09-23T11:51:22.557Z,25.50
2017-09-23T11:52:19.870Z,23.00
2017-09-23T11:53:17.231Z,22.10
2017-09-23T11:54:14.468Z,22.10
2017-09-23T11:55:11.733Z,22.10
2017-09-23T11:56:09.000Z,21.90
2017-09-23T11:57:06.282Z,21.70
2017-09-23T11:58:03.533Z,22.70
2017-09-23T11:59:00.835Z,22.40
2017-09-23T11:59:58.062Z,21.10
2017-09-23T12:00:55.327Z,21.80
2017-09-23T12:01:52.571Z,20.70
2017-09-23T12:02:49.847Z,18.80
2017-09-23T12:03:47.158Z,18.90
2017-09-23T12:04:44.445Z,16.90
2017-09-23T12:05:41.697Z,15.70
2017-09-23T12:06:39.008Z,16.40
2017-09-23T12:07:36.248Z,18.70
2017-09-23T12:08:33.540Z,20.60
2017-09-23T12:09:30.937Z,17.50
2017-09-23T12:10:28.203Z,16.00
2017-09-23T12:11:25.449Z,15.20
2017-09-23T12:12:22.730Z,16.70
2017-09-23T12:13:20.016Z,15.60
2017-09-23T12:14:19.367Z,18.80
2017-09-23T12:15:16.631Z,18.40
2017-09-23T12:16:13.917Z,19.70
2017-09-23T12:17:11.195Z,20.70
2017-09-23T12:18:08.482Z,20.20
2017-09-23T12:19:05.785Z,20.60
2017-09-23T12:20:05.102Z,19.60
2017-09-23T12:21:02.391Z,19.40
2017-09-23T12:21:59.693Z,20.60
2017-09-23T12:22:57.159Z,19.40
2017-09-23T12:23:54.483Z,19.80
2017-09-23T12:24:51.717Z,19.20
2017-09-23T12:25:48.979Z,19.00